createdAt,value
2018-07-08T00:02:05.214Z,14.00
2018-07-08T00:04:33.856Z,13.90
2018-07-08T00:07:02.454Z,13.80
2018-07-08T00:09:31.053Z,13.80
2018-07-08T00:11:59.888Z,13.80
2018-07-08T00:14:28.652Z,13.70
2018-07-08T00:16:57.417Z,13.70
2018-07-08T00:19:25.984Z,13.60
2018-07-08T00:21:54.952Z,13.40
2018-07-08T00:24:23.518Z,13.20
2018-07-08T00:26:52.329Z,13.10
2018-07-08T00:29:21.062Z,13.20
2018-07-08T00:31:49.900Z,13.10
2018-07-08T00:34:18.413Z,13.10
2018-07-08T00:36:47.087Z,13.10
2018-07-08T00:41:44.127Z,13.00
2018-07-08T00:44:12.870Z,12.90
2018-07-08T00:46:41.420Z,12.90
2018-07-08T00:49:10.153Z,12.80
2018-07-08T00:51:39.057Z,12.60
2018-07-08T00:54:07.624Z,12.40
2018-07-08T00:56:36.204Z,12.40
2018-07-08T00:59:04.828Z,12.40
2018-07-08T01:01:33.485Z,12.50
2018-07-08T01:04:02.168Z,12.50
2018-07-08T01:06:30.848Z,12.60
2018-07-08T01:08:59.408Z,12.50
2018-07-08T01:11:28.169Z,12.60
2018-07-08T01:13:56.929Z,12.60
2018-07-08T01:16:25.703Z,12.50
2018-07-08T01:18:54.311Z,12.20
2018-07-08T01:21:22.877Z,12.00
2018-07-08T01:23:51.368Z,12.10
2018-07-08T01:26:19.956Z,12.00
2018-07-08T01:28:48.669Z,12.00
2018-07-08T01:33:45.616Z,11.70
2018-07-08T01:36:14.303Z,11.70
2018-07-08T01:38:42.827Z,11.50
2018-07-08T01:41:11.671Z,11.40
2018-07-08T01:43:40.210Z,11.50
2018-07-08T01:46:08.976Z,11.50
2018-07-08T01:48:37.485Z,11.50
2018-07-08T01:51:06.052Z,11.50
2018-07-08T01:53:34.601Z,11.40
2018-07-08T01:56:03.275Z,11.20
2018-07-08T01:58:31.806Z,11.10
2018-07-08T02:01:00.670Z,11.10
2018-07-08T02:03:29.529Z,11.10
2018-07-08T02:05:58.031Z,11.00
2018-07-08T02:08:26.643Z,11.00
2018-07-08T02:10:55.433Z,10.90
2018-07-08T02:13:24.140Z,10.90
2018-07-08T02:15:52.644Z,10.90
2018-07-08T02:18:21.207Z,10.80
2018-07-08T02:20:49.808Z,11.00
2018-07-08T02:23:18.453Z,10.90
2018-07-08T02:25:47.106Z,10.80
2018-07-08T02:28:15.896Z,10.70
2018-07-08T02:30:44.447Z,10.60
2018-07-08T02:33:13.159Z,10.60
2018-07-08T02:35:41.697Z,10.60
2018-07-08T02:38:10.505Z,10.50
2018-07-08T02:40:39.180Z,10.50
2018-07-08T02:43:07.851Z,10.50
2018-07-08T02:45:36.905Z,10.40
2018-07-08T02:48:05.759Z,10.30
2018-07-08T02:50:34.282Z,10.40
2018-07-08T02:53:02.886Z,10.40
2018-07-08T02:55:31.409Z,10.30
2018-07-08T02:57:59.918Z,10.20
2018-07-08T03:00:28.624Z,10.10
2018-07-08T03:02:57.223Z,10.10
2018-07-08T03:05:25.996Z,10.20
2018-07-08T03:07:54.659Z,10.00
2018-07-08T03:10:23.170Z,10.10
2018-07-08T03:12:51.657Z,10.00
2018-07-08T03:15:20.223Z,10.00
2018-07-08T03:17:48.741Z,10.00
2018-07-08T03:20:17.231Z,9.90
2018-07-08T03:22:45.712Z,10.00
2018-07-08T03:25:14.234Z,9.90
2018-07-08T03:27:43.295Z,9.90
2018-07-08T03:30:11.796Z,9.80
2018-07-08T03:32:40.354Z,9.70
2018-07-08T03:35:08.975Z,9.70
2018-07-08T03:37:37.537Z,9.70
2018-07-08T03:40:06.074Z,9.60
2018-07-08T03:42:34.599Z,9.70
2018-07-08T03:45:03.215Z,9.80
2018-07-08T03:47:31.918Z,9.90
2018-07-08T03:50:00.595Z,9.80
2018-07-08T03:52:29.409Z,9.70
2018-07-08T03:54:57.999Z,9.60
2018-07-08T03:57:26.643Z,9.50
2018-07-08T03:59:55.346Z,9.60
2018-07-08T04:02:23.879Z,9.60
2018-07-08T04:04:52.381Z,9.60
2018-07-08T04:07:20.974Z,9.70
2018-07-08T04:09:49.660Z,9.60
2018-07-08T04:12:18.400Z,9.70
2018-07-08T04:14:46.912Z,9.80
2018-07-08T04:17:15.540Z,10.00
2018-07-08T04:19:44.136Z,10.00
2018-07-08T04:22:12.707Z,10.10
2018-07-08T04:24:41.276Z,10.00
2018-07-08T04:27:10.274Z,10.00
2018-07-08T04:29:38.838Z,10.00
2018-07-08T04:32:07.303Z,10.20
2018-07-08T04:37:04.085Z,10.50
2018-07-08T04:39:32.559Z,10.60
2018-07-08T04:44:29.599Z,10.80
2018-07-08T04:46:58.084Z,11.00
2018-07-08T04:49:26.663Z,11.40
2018-07-08T04:51:55.333Z,11.50
2018-07-08T04:54:24.024Z,11.70
2018-07-08T04:56:52.759Z,11.60
2018-07-08T04:59:21.322Z,11.90
2018-07-08T05:01:49.905Z,11.80
2018-07-08T05:04:18.390Z,11.70
2018-07-08T05:06:47.041Z,11.80
2018-07-08T05:09:15.518Z,11.80
2018-07-08T05:11:44.024Z,12.10
2018-07-08T05:14:12.651Z,12.40
2018-07-08T05:16:41.191Z,12.60
2018-07-08T05:19:09.812Z,12.40
2018-07-08T05:21:38.298Z,12.40
2018-07-08T05:24:06.807Z,12.30
2018-07-08T05:26:35.347Z,12.10
2018-07-08T05:29:03.796Z,12.40
2018-07-08T05:31:32.315Z,12.40
2018-07-08T05:34:01.130Z,12.70
2018-07-08T05:36:30.100Z,13.00
2018-07-08T05:38:58.924Z,13.40
2018-07-08T05:41:27.911Z,13.40
2018-07-08T05:43:56.838Z,13.50
2018-07-08T05:46:25.631Z,13.50
2018-07-08T05:48:54.165Z,13.20
2018-07-08T05:51:23.061Z,13.20
2018-07-08T05:53:51.707Z,13.30
2018-07-08T05:56:20.398Z,13.30
2018-07-08T05:58:49.068Z,13.40
2018-07-08T06:01:17.730Z,13.40
2018-07-08T06:03:46.327Z,13.50
2018-07-08T06:06:14.925Z,13.60
2018-07-08T06:08:43.445Z,13.60
2018-07-08T06:11:12.200Z,13.40
2018-07-08T06:13:41.033Z,13.40
2018-07-08T06:16:09.597Z,13.40
2018-07-08T06:18:38.136Z,13.40
2018-07-08T06:21:07.079Z,13.40
2018-07-08T06:23:35.800Z,13.50
2018-07-08T06:26:04.407Z,13.40
2018-07-08T06:28:32.915Z,13.50
2018-07-08T06:31:01.581Z,13.80
2018-07-08T06:33:30.262Z,14.10
2018-07-08T06:35:58.821Z,14.40
2018-07-08T06:38:27.617Z,14.50
2018-07-08T06:40:56.288Z,14.50
2018-07-08T06:43:25.173Z,14.60
2018-07-08T06:45:53.716Z,14.40
2018-07-08T06:48:22.240Z,14.50
2018-07-08T06:53:19.148Z,14.70
2018-07-08T06:55:47.815Z,14.90
2018-07-08T06:58:16.636Z,14.90
2018-07-08T07:00:45.148Z,14.90
2018-07-08T07:03:13.950Z,15.00
2018-07-08T07:08:10.670Z,15.20
2018-07-08T07:10:39.284Z,15.20
2018-07-08T07:13:08.159Z,15.20
2018-07-08T07:15:36.768Z,15.30
2018-07-08T07:20:33.907Z,15.50
2018-07-08T07:23:02.418Z,15.40
2018-07-08T07:25:30.907Z,13.20
2018-07-08T07:27:59.664Z,15.40
2018-07-08T07:30:28.272Z,15.50
2018-07-08T07:32:56.977Z,15.60
2018-07-08T07:35:25.445Z,15.70
2018-07-08T07:37:54.008Z,15.70
2018-07-08T07:45:19.428Z,16.40
2018-07-08T07:47:47.926Z,16.40
2018-07-08T07:50:16.924Z,16.40
2018-07-08T07:52:45.660Z,16.70
2018-07-08T07:55:14.211Z,16.60
2018-07-08T07:57:43.011Z,16.60
2018-07-08T08:00:11.567Z,16.60
2018-07-08T08:02:40.219Z,16.80
2018-07-08T08:05:08.987Z,16.80
2018-07-08T08:07:37.925Z,17.00
2018-07-08T08:10:06.868Z,17.20
2018-07-08T08:12:35.696Z,17.50
2018-07-08T08:15:04.912Z,17.60
2018-07-08T08:17:33.710Z,17.70
2018-07-08T08:20:03.451Z,17.60
2018-07-08T08:22:32.008Z,17.70
2018-07-08T08:25:00.626Z,17.50
2018-07-08T08:27:29.508Z,17.50
2018-07-08T08:29:58.665Z,17.40
2018-07-08T08:32:27.323Z,17.50
2018-07-08T08:34:57.997Z,17.60
2018-07-08T08:37:28.088Z,17.70
2018-07-08T08:42:25.341Z,17.80
2018-07-08T08:44:54.802Z,18.00
2018-07-08T08:47:23.873Z,18.00
2018-07-08T08:52:21.686Z,18.30
2018-07-08T08:54:50.548Z,18.50
2018-07-08T08:57:19.096Z,18.50
2018-07-08T08:59:47.704Z,18.50
2018-07-08T09:02:16.301Z,18.50
2018-07-08T09:04:45.303Z,18.60
2018-07-08T09:07:15.740Z,18.60
2018-07-08T09:09:44.410Z,18.60
2018-07-08T09:12:13.597Z,18.70
2018-07-08T09:14:42.308Z,18.90
2018-07-08T09:17:11.221Z,18.90
2018-07-08T09:19:40.097Z,19.10
2018-07-08T09:22:09.342Z,19.30
2018-07-08T09:24:38.017Z,19.10
2018-07-08T09:27:07.125Z,19.10
2018-07-08T09:32:04.258Z,19.30
2018-07-08T09:34:33.161Z,19.60
2018-07-08T09:37:01.716Z,20.10
2018-07-08T09:39:30.566Z,20.10
2018-07-08T09:44:27.492Z,20.40
2018-07-08T09:46:56.195Z,20.40
2018-07-08T09:49:25.088Z,20.70
2018-07-08T09:51:53.719Z,20.90
2018-07-08T09:54:22.272Z,21.20
2018-07-08T09:56:51.232Z,21.60
2018-07-08T09:59:19.923Z,21.70
2018-07-08T10:01:49.679Z,21.60
2018-07-08T10:04:19.676Z,21.50
2018-07-08T10:06:49.411Z,21.60
2018-07-08T10:09:19.307Z,21.90
2018-07-08T10:11:48.050Z,22.30
2018-07-08T10:14:18.928Z,22.50
2018-07-08T10:16:47.698Z,22.50
2018-07-08T10:19:17.389Z,22.90
2018-07-08T10:21:46.260Z,22.80
2018-07-08T10:24:15.222Z,23.20
2018-07-08T10:26:43.887Z,23.90
2018-07-08T10:29:16.335Z,23.80
2018-07-08T10:31:51.026Z,24.60
2018-07-08T10:34:19.764Z,25.50
2018-07-08T10:36:48.392Z,25.80
2018-07-08T10:39:17.553Z,26.20
2018-07-08T10:41:46.201Z,26.00
2018-07-08T10:44:14.797Z,26.60
2018-07-08T10:46:43.896Z,25.80
2018-07-08T10:49:12.640Z,26.60
2018-07-08T10:51:41.196Z,26.20
2018-07-08T10:54:10.275Z,26.70
2018-07-08T10:59:07.224Z,27.70
2018-07-08T11:01:36.161Z,28.50
2018-07-08T11:04:05.032Z,28.80
2018-07-08T11:06:33.647Z,29.10
2018-07-08T11:09:02.300Z,29.00
2018-07-08T11:11:31.202Z,28.90
2018-07-08T11:13:59.763Z,28.40
2018-07-08T11:16:28.885Z,28.40
2018-07-08T11:18:57.501Z,29.10
2018-07-08T11:21:26.096Z,28.60
2018-07-08T11:23:54.944Z,28.40
2018-07-08T11:26:23.529Z,28.70
2018-07-08T11:28:52.357Z,29.20
2018-07-08T11:31:21.074Z,29.50
2018-07-08T11:33:49.692Z,29.50
2018-07-08T11:36:18.310Z,30.50
2018-07-08T11:38:47.016Z,30.60
2018-07-08T11:41:15.968Z,30.40
2018-07-08T11:43:45.252Z,29.60
2018-07-08T11:46:13.825Z,29.60
2018-07-08T11:48:42.698Z,30.40
2018-07-08T11:51:11.409Z,31.10
2018-07-08T11:53:40.093Z,31.30
2018-07-08T11:56:08.893Z,31.60
2018-07-08T11:58:37.866Z,30.50
2018-07-08T12:01:06.497Z,31.00
2018-07-08T12:03:35.283Z,30.70
2018-07-08T12:06:04.020Z,30.20
2018-07-08T12:08:33.229Z,30.80
2018-07-08T12:11:01.797Z,31.90
2018-07-08T12:13:30.375Z,31.70
2018-07-08T12:15:59.076Z,32.50
2018-07-08T12:18:27.662Z,30.70
2018-07-08T12:20:56.242Z,31.80
2018-07-08T12:23:24.817Z,31.40
2018-07-08T12:25:53.810Z,32.20
2018-07-08T12:28:22.530Z,32.00
2018-07-08T12:30:51.214Z,31.00
2018-07-08T12:33:19.721Z,30.40
2018-07-08T12:35:48.617Z,31.20
2018-07-08T12:38:17.640Z,33.20
2018-07-08T12:40:46.518Z,33.30
2018-07-08T12:43:15.300Z,33.30
2018-07-08T12:45:44.108Z,32.60
2018-07-08T12:48:12.713Z,32.60
2018-07-08T12:50:41.400Z,33.20
2018-07-08T12:53:10.033Z,33.90
2018-07-08T12:55:38.563Z,33.40
2018-07-08T12:58:07.351Z,33.50
2018-07-08T13:00:35.951Z,32.80
2018-07-08T13:03:05.146Z,33.30
2018-07-08T13:05:34.077Z,33.80
2018-07-08T13:08:02.847Z,33.90
2018-07-08T13:10:31.604Z,33.20
2018-07-08T13:13:00.246Z,33.90
2018-07-08T13:15:29.337Z,33.50
2018-07-08T13:17:58.003Z,33.10
2018-07-08T13:20:26.842Z,33.60
2018-07-08T13:22:55.609Z,33.10
2018-07-08T13:27:53.482Z,34.50
2018-07-08T13:30:22.419Z,33.90
2018-07-08T13:32:51.180Z,34.40
2018-07-08T13:35:19.764Z,34.80
2018-07-08T13:37:48.649Z,35.20
2018-07-08T13:40:17.583Z,34.60
2018-07-08T13:42:46.492Z,34.80
2018-07-08T13:45:15.352Z,33.70
2018-07-08T13:47:43.987Z,34.70
2018-07-08T13:50:12.566Z,33.10
2018-07-08T13:52:41.360Z,34.40
2018-07-08T13:55:09.894Z,35.20
2018-07-08T13:57:38.424Z,34.70
2018-07-08T14:00:07.500Z,34.30
2018-07-08T14:02:36.183Z,36.10
2018-07-08T14:05:04.979Z,35.00
2018-07-08T14:07:33.549Z,36.20
2018-07-08T14:10:02.359Z,35.50
2018-07-08T14:12:30.920Z,35.00
2018-07-08T14:14:59.522Z,34.40
2018-07-08T14:17:28.077Z,35.30
2018-07-08T14:19:56.702Z,36.30
2018-07-08T14:22:25.485Z,36.50
2018-07-08T14:24:54.206Z,36.40
2018-07-08T14:29:51.010Z,37.80
2018-07-08T14:32:19.605Z,35.50
2018-07-08T14:34:48.153Z,36.40
2018-07-08T14:37:16.784Z,35.40
2018-07-08T14:39:45.592Z,36.90
2018-07-08T14:42:14.522Z,36.90
2018-07-08T14:44:43.305Z,35.50
2018-07-08T14:49:40.260Z,35.70
2018-07-08T14:52:09.251Z,35.80
2018-07-08T14:54:38.020Z,35.70
2018-07-08T14:59:35.572Z,35.60
2018-07-08T15:02:05.112Z,35.60
2018-07-08T15:04:33.858Z,37.40
2018-07-08T15:09:31.119Z,38.50
2018-07-08T15:11:59.906Z,36.80
2018-07-08T15:14:28.810Z,34.90
2018-07-08T15:16:57.809Z,36.40
2018-07-08T15:19:26.367Z,37.50
2018-07-08T15:21:55.309Z,38.00
2018-07-08T15:24:24.080Z,37.50
2018-07-08T15:26:52.759Z,37.60
2018-07-08T15:31:49.975Z,35.00
2018-07-08T15:34:18.579Z,35.40
2018-07-08T15:36:47.598Z,37.50
2018-07-08T15:39:16.193Z,38.90
2018-07-08T15:41:45.048Z,36.10
2018-07-08T15:44:14.248Z,35.80
2018-07-08T15:46:42.812Z,36.90
2018-07-08T15:49:11.459Z,36.10
2018-07-08T15:54:09.128Z,34.10
2018-07-08T15:56:37.949Z,35.00
2018-07-08T15:59:07.222Z,34.40
2018-07-08T16:04:04.656Z,35.60
2018-07-08T16:06:33.855Z,37.10
2018-07-08T16:09:02.751Z,34.20
2018-07-08T16:11:31.374Z,32.50
2018-07-08T16:16:29.229Z,32.10
2018-07-08T16:18:58.141Z,31.00
2018-07-08T16:23:55.354Z,29.10
2018-07-08T16:26:26.092Z,28.50
2018-07-08T16:28:55.072Z,28.80
2018-07-08T16:31:23.682Z,28.90
2018-07-08T16:33:55.882Z,28.40
2018-07-08T16:36:24.764Z,27.60
2018-07-08T16:38:53.305Z,27.80
2018-07-08T16:41:22.135Z,27.70
2018-07-08T16:43:50.919Z,28.00
2018-07-08T16:46:20.360Z,27.60
2018-07-08T16:48:49.223Z,28.00
2018-07-08T16:53:45.911Z,29.10
2018-07-08T16:56:14.483Z,28.60
2018-07-08T16:58:43.469Z,28.20
2018-07-08T17:01:12.287Z,27.70
2018-07-08T17:03:41.012Z,27.30
2018-07-08T17:06:09.711Z,26.90
2018-07-08T17:08:38.535Z,26.80
2018-07-08T17:11:07.630Z,27.00
2018-07-08T17:13:37.091Z,26.80
2018-07-08T17:16:06.117Z,26.30
2018-07-08T17:18:34.959Z,26.30
2018-07-08T17:21:03.632Z,26.10
2018-07-08T17:23:32.518Z,26.00
2018-07-08T17:26:01.000Z,25.80
2018-07-08T17:28:29.779Z,25.70
2018-07-08T17:30:58.361Z,25.50
2018-07-08T17:33:27.060Z,25.50
2018-07-08T17:35:55.784Z,25.50
2018-07-08T17:38:24.501Z,25.30
2018-07-08T17:40:53.954Z,25.30
2018-07-08T17:43:22.532Z,25.40
2018-07-08T17:45:51.381Z,25.40
2018-07-08T17:48:20.359Z,25.20
2018-07-08T17:50:49.185Z,24.90
2018-07-08T17:53:18.113Z,24.90
2018-07-08T17:55:47.122Z,24.90
2018-07-08T17:58:15.831Z,24.90
2018-07-08T18:00:44.822Z,24.90
2018-07-08T18:03:13.930Z,24.80
2018-07-08T18:05:42.737Z,24.60
2018-07-08T18:08:11.515Z,24.50
2018-07-08T18:10:40.467Z,24.40
2018-07-08T18:13:09.558Z,24.50
2018-07-08T18:15:39.305Z,24.40
2018-07-08T18:18:08.504Z,24.30
2018-07-08T18:20:37.475Z,24.10
2018-07-08T18:25:34.872Z,24.00
2018-07-08T18:28:03.866Z,24.00
2018-07-08T18:30:33.861Z,24.00
2018-07-08T18:33:03.182Z,23.90
2018-07-08T18:35:32.096Z,23.80
2018-07-08T18:38:01.152Z,23.60
2018-07-08T18:40:30.084Z,23.50
2018-07-08T18:42:58.838Z,23.40
2018-07-08T18:45:27.472Z,23.30
2018-07-08T18:47:56.427Z,23.20
2018-07-08T18:50:25.363Z,23.10
2018-07-08T18:52:58.902Z,23.10
2018-07-08T18:55:27.789Z,22.90
2018-07-08T18:57:56.594Z,22.80
2018-07-08T19:00:25.845Z,22.70
2018-07-08T19:02:54.570Z,22.60
2018-07-08T19:05:23.403Z,22.50
2018-07-08T19:07:52.875Z,22.50
2018-07-08T19:10:21.834Z,22.30
2018-07-08T19:15:18.690Z,22.10
2018-07-08T19:17:47.440Z,22.00
2018-07-08T19:20:16.038Z,21.90
2018-07-08T19:22:44.934Z,21.80
2018-07-08T19:25:14.072Z,21.70
2018-07-08T19:27:43.070Z,21.60
2018-07-08T19:30:12.062Z,21.40
2018-07-08T19:32:41.249Z,21.30
2018-07-08T19:35:10.015Z,21.20
2018-07-08T19:37:38.699Z,21.10
2018-07-08T19:40:07.508Z,21.00
2018-07-08T19:42:36.152Z,21.00
2018-07-08T19:45:04.897Z,20.80
2018-07-08T19:47:33.852Z,20.80
2018-07-08T19:50:03.019Z,20.70
2018-07-08T19:52:32.102Z,20.60
2018-07-08T19:55:01.193Z,20.50
2018-07-08T19:57:30.659Z,20.40
2018-07-08T19:59:59.600Z,20.30
2018-07-08T20:02:28.834Z,20.20
2018-07-08T20:04:58.162Z,20.00
2018-07-08T20:07:27.066Z,19.90
2018-07-08T20:09:55.516Z,19.70
2018-07-08T20:12:24.172Z,19.50
2018-07-08T20:14:53.029Z,19.40
2018-07-08T20:17:22.407Z,19.20
2018-07-08T20:19:51.558Z,19.00
2018-07-08T20:22:20.113Z,18.80
2018-07-08T20:24:48.921Z,18.80
2018-07-08T20:27:18.091Z,18.80
2018-07-08T20:29:46.770Z,18.80
2018-07-08T20:32:15.545Z,18.70
2018-07-08T20:34:44.391Z,18.60
2018-07-08T20:37:13.250Z,18.40
2018-07-08T20:39:42.200Z,18.30
2018-07-08T20:42:10.805Z,18.20
2018-07-08T20:44:39.536Z,18.10
2018-07-08T20:47:08.147Z,18.10
2018-07-08T20:49:37.132Z,18.00
2018-07-08T20:52:05.904Z,17.70
2018-07-08T20:54:34.628Z,17.80
2018-07-08T20:57:03.544Z,17.70
2018-07-08T20:59:32.115Z,17.50
2018-07-08T21:02:01.087Z,17.50
2018-07-08T21:04:29.870Z,17.20
2018-07-08T21:06:58.619Z,17.10
2018-07-08T21:09:27.612Z,17.10
2018-07-08T21:11:56.367Z,17.10
2018-07-08T21:14:25.183Z,17.10
2018-07-08T21:16:53.879Z,17.00
2018-07-08T21:19:22.489Z,17.00
2018-07-08T21:21:51.391Z,16.80
2018-07-08T21:24:20.318Z,16.70
2018-07-08T21:26:49.028Z,16.50
2018-07-08T21:29:17.779Z,16.60
2018-07-08T21:31:46.425Z,16.50
2018-07-08T21:34:15.051Z,16.40
2018-07-08T21:36:43.541Z,16.20
2018-07-08T21:39:12.411Z,16.20
2018-07-08T21:41:41.892Z,16.20
2018-07-08T21:44:10.724Z,16.10
2018-07-08T21:46:39.628Z,16.00
2018-07-08T21:49:08.187Z,16.00
2018-07-08T21:51:36.675Z,16.00
2018-07-08T21:54:05.272Z,15.90
2018-07-08T21:56:34.064Z,16.00
2018-07-08T21:59:02.746Z,15.80
2018-07-08T22:01:37.112Z,15.70
2018-07-08T22:06:34.564Z,15.70
2018-07-08T22:09:03.103Z,15.50
2018-07-08T22:11:34.686Z,15.30
2018-07-08T22:14:03.493Z,15.30
2018-07-08T22:16:32.120Z,15.40
2018-07-08T22:19:00.694Z,15.30
2018-07-08T22:21:29.439Z,15.20
2018-07-08T22:23:58.076Z,15.20
2018-07-08T22:26:27.180Z,15.10
2018-07-08T22:28:55.952Z,15.10
2018-07-08T22:31:25.354Z,15.00
2018-07-08T22:33:54.438Z,14.80
2018-07-08T22:36:26.123Z,14.80
2018-07-08T22:38:54.758Z,14.80
2018-07-08T22:41:23.315Z,14.80
2018-07-08T22:43:51.805Z,14.90
2018-07-08T22:46:20.328Z,14.70
2018-07-08T22:48:49.023Z,14.70
2018-07-08T22:51:17.706Z,14.70
2018-07-08T22:53:46.207Z,14.80
2018-07-08T22:56:15.322Z,14.90
2018-07-08T22:58:44.276Z,14.80
2018-07-08T23:01:24.021Z,14.70
2018-07-08T23:03:59.210Z,14.60
2018-07-08T23:06:27.771Z,14.40
2018-07-08T23:08:56.705Z,14.40
2018-07-08T23:11:26.290Z,14.30
2018-07-08T23:13:55.825Z,14.30
2018-07-08T23:16:25.351Z,14.20
2018-07-08T23:18:53.856Z,14.20
2018-07-08T23:21:22.575Z,14.10
2018-07-08T23:23:51.092Z,14.00
2018-07-08T23:26:19.691Z,14.00
2018-07-08T23:28:48.277Z,14.10
2018-07-08T23:31:16.847Z,14.20
2018-07-08T23:33:45.560Z,14.10
2018-07-08T23:36:14.222Z,14.30
2018-07-08T23:38:43.036Z,14.20
2018-07-08T23:41:12.145Z,14.00
2018-07-08T23:43:40.636Z,14.10
2018-07-08T23:46:09.146Z,14.10
2018-07-08T23:48:37.884Z,14.00
2018-07-08T23:51:06.411Z,13.90
2018-07-08T23:53:35.036Z,13.90
2018-07-08T23:56:03.544Z,13.80
2018-07-08T23:58:32.054Z,13.60
